createdAt,value
2019-04-30T00:00:10.549Z,45.80
2019-04-30T00:03:06.843Z,45.80
2019-04-30T00:05:37.395Z,45.90
2019-04-30T00:08:09.844Z,45.90
2019-04-30T00:10:41.517Z,45.90
2019-04-30T00:13:17.557Z,46.20
2019-04-30T00:15:52.881Z,46.20
2019-04-30T00:18:19.540Z,46.20
2019-04-30T00:20:49.686Z,46.10
2019-04-30T00:23:22.611Z,46.00
2019-04-30T00:25:58.320Z,46.00
2019-04-30T00:28:30.168Z,46.00
2019-04-30T00:31:07.974Z,45.90
2019-04-30T00:33:38.216Z,45.90
2019-04-30T00:36:20.466Z,45.80
2019-04-30T00:38:51.728Z,45.80
2019-04-30T00:41:46.447Z,45.80
2019-04-30T00:44:15.142Z,45.60
2019-04-30T00:46:45.787Z,45.60
2019-04-30T00:49:22.999Z,45.70
2019-04-30T00:51:56.717Z,45.70
2019-04-30T00:54:55.284Z,45.60
2019-04-30T00:57:28.924Z,45.60
2019-04-30T00:59:56.137Z,45.60
2019-04-30T01:02:42.744Z,45.40
2019-04-30T01:05:16.311Z,45.40
2019-04-30T01:07:48.713Z,45.40
2019-04-30T01:10:26.762Z,45.50
2019-04-30T01:13:12.457Z,45.30
2019-04-30T01:15:58.835Z,45.30
2019-04-30T01:18:32.220Z,45.30
2019-04-30T01:21:07.895Z,45.30
2019-04-30T01:23:43.144Z,45.20
2019-04-30T01:26:11.345Z,45.20
2019-04-30T01:28:42.632Z,45.00
2019-04-30T01:31:40.806Z,45.00
2019-04-30T01:34:13.927Z,45.00
2019-04-30T01:36:43.494Z,44.90
2019-04-30T01:39:13.317Z,45.00
2019-04-30T01:41:51.116Z,44.90
2019-04-30T01:44:43.438Z,44.90
2019-04-30T01:47:13.268Z,44.90
2019-04-30T01:49:45.638Z,44.80
2019-04-30T01:52:20.523Z,44.70
2019-04-30T01:54:56.555Z,44.70
2019-04-30T01:57:53.141Z,44.70
2019-04-30T02:00:52.223Z,44.80
2019-04-30T02:03:29.377Z,44.70
2019-04-30T02:06:04.938Z,44.70
2019-04-30T02:08:39.337Z,44.70
2019-04-30T02:12:11.622Z,44.70
2019-04-30T02:14:09.409Z,44.70
2019-04-30T02:16:54.311Z,44.70
2019-04-30T02:19:41.085Z,44.70
2019-04-30T02:22:18.976Z,44.60
2019-04-30T02:24:48.752Z,44.70
2019-04-30T02:27:19.164Z,44.60
2019-04-30T02:29:50.605Z,44.60
2019-04-30T02:32:30.531Z,44.50
2019-04-30T02:35:13.234Z,44.50
2019-04-30T02:38:02.129Z,44.50
2019-04-30T02:40:42.684Z,44.60
2019-04-30T02:43:11.883Z,44.50
2019-04-30T02:45:45.581Z,44.50
2019-04-30T02:48:15.067Z,44.50
2019-04-30T02:50:45.188Z,44.50
2019-04-30T02:53:52.810Z,44.60
2019-04-30T02:56:26.597Z,44.50
2019-04-30T02:58:56.546Z,44.60
2019-04-30T03:01:26.524Z,44.60
2019-04-30T03:04:02.816Z,44.60
2019-04-30T03:06:35.992Z,44.60
2019-04-30T03:09:06.007Z,44.50
2019-04-30T03:11:35.530Z,44.50
2019-04-30T03:14:11.190Z,44.40
2019-04-30T03:16:53.191Z,44.40
2019-04-30T03:19:40.112Z,44.40
2019-04-30T03:22:20.324Z,44.40
2019-04-30T03:24:50.094Z,44.30
2019-04-30T03:27:49.981Z,44.30
2019-04-30T03:30:42.455Z,44.30
2019-04-30T03:33:35.343Z,44.30
2019-04-30T03:36:11.943Z,44.30
2019-04-30T03:38:59.855Z,44.30
2019-04-30T03:41:33.128Z,44.30
2019-04-30T03:44:17.381Z,44.30
2019-04-30T03:46:39.901Z,44.40
2019-04-30T03:49:35.685Z,44.30
2019-04-30T03:52:06.373Z,44.30
2019-04-30T03:54:36.758Z,44.30
2019-04-30T03:57:05.924Z,44.30
2019-04-30T03:59:39.483Z,44.20
2019-04-30T04:02:21.734Z,44.30
2019-04-30T04:05:21.749Z,44.20
2019-04-30T04:08:15.756Z,44.20
2019-04-30T04:11:19.924Z,44.20
2019-04-30T04:13:49.661Z,44.30
2019-04-30T04:16:19.606Z,44.20
2019-04-30T04:18:50.040Z,44.20
2019-04-30T04:21:23.777Z,44.20
2019-04-30T04:23:53.085Z,44.20
2019-04-30T04:26:22.218Z,44.20
2019-04-30T04:28:51.713Z,44.10
2019-04-30T04:31:29.784Z,44.20
2019-04-30T04:34:02.101Z,44.20
2019-04-30T04:36:50.698Z,44.20
2019-04-30T04:39:22.113Z,44.10
2019-04-30T04:41:51.769Z,44.10
2019-04-30T04:44:23.477Z,44.20
2019-04-30T04:46:53.151Z,44.20
2019-04-30T04:49:23.288Z,44.10
2019-04-30T04:51:54.633Z,44.20
2019-04-30T04:54:25.448Z,44.70
2019-04-30T04:57:10.975Z,44.10
2019-04-30T04:59:32.280Z,44.10
2019-04-30T05:02:20.645Z,44.10
2019-04-30T05:04:52.656Z,44.10
2019-04-30T05:07:22.143Z,44.10
2019-04-30T05:09:52.274Z,44.10
2019-04-30T05:12:21.394Z,44.10
2019-04-30T05:14:50.619Z,44.10
2019-04-30T05:17:22.745Z,44.10
2019-04-30T05:19:52.558Z,44.10
2019-04-30T05:22:22.271Z,44.10
2019-04-30T05:24:55.460Z,44.10
2019-04-30T05:27:24.624Z,44.00
2019-04-30T05:29:53.702Z,44.10
2019-04-30T05:32:22.649Z,44.00
2019-04-30T05:35:11.198Z,44.10
2019-04-30T05:37:40.036Z,44.00
2019-04-30T05:40:09.374Z,43.90
2019-04-30T05:43:11.236Z,44.00
2019-04-30T05:48:41.232Z,44.60
2019-04-30T05:51:22.676Z,44.00
2019-04-30T05:53:59.376Z,44.10
2019-04-30T05:56:30.468Z,44.00
2019-04-30T05:59:01.143Z,44.10
2019-04-30T06:01:30.581Z,43.90
2019-04-30T06:03:59.893Z,43.90
2019-04-30T06:06:33.630Z,43.90
2019-04-30T06:09:30.763Z,43.90
2019-04-30T06:12:11.571Z,43.90
2019-04-30T06:14:59.089Z,44.20
2019-04-30T06:20:26.515Z,45.00
2019-04-30T06:22:59.708Z,45.30
2019-04-30T06:25:45.871Z,45.60
2019-04-30T06:28:06.754Z,45.80
2019-04-30T06:30:39.805Z,46.10
2019-04-30T06:33:12.572Z,46.30
2019-04-30T06:35:49.157Z,46.60
2019-04-30T06:38:18.557Z,47.00
2019-04-30T06:40:49.629Z,47.10
2019-04-30T06:43:50.957Z,47.30
2019-04-30T06:46:20.120Z,47.30
2019-04-30T06:48:51.025Z,47.30
2019-04-30T06:51:20.523Z,47.40
2019-04-30T06:53:53.873Z,47.40
2019-04-30T06:56:23.747Z,47.40
2019-04-30T06:58:54.979Z,47.50
2019-04-30T07:01:26.453Z,47.50
2019-04-30T07:04:14.946Z,47.50
2019-04-30T07:06:51.399Z,47.30
2019-04-30T07:09:52.106Z,47.20
2019-04-30T07:12:39.051Z,47.20
2019-04-30T07:15:08.765Z,47.20
2019-04-30T07:17:40.564Z,47.10
2019-04-30T07:20:10.458Z,47.00
2019-04-30T07:23:02.570Z,47.00
2019-04-30T07:25:29.538Z,46.90
2019-04-30T07:28:10.088Z,46.70
2019-04-30T07:30:39.624Z,46.70
2019-04-30T07:33:29.637Z,46.60
2019-04-30T07:36:01.501Z,46.50
2019-04-30T07:38:51.779Z,46.40
2019-04-30T07:41:31.726Z,46.40
2019-04-30T07:44:01.089Z,46.40
2019-04-30T07:46:30.243Z,46.40
2019-04-30T07:49:02.417Z,46.40
2019-04-30T07:51:37.682Z,46.40
2019-04-30T07:54:03.333Z,46.30
2019-04-30T07:56:37.874Z,46.20
2019-04-30T07:59:06.027Z,46.20
2019-04-30T08:01:37.202Z,46.20
2019-04-30T08:04:15.630Z,46.10
2019-04-30T08:06:44.736Z,46.10
2019-04-30T08:09:21.884Z,46.00
2019-04-30T08:11:50.348Z,46.00
2019-04-30T08:14:21.111Z,46.00
2019-04-30T08:16:52.026Z,45.90
2019-04-30T08:19:21.117Z,45.90
2019-04-30T08:21:50.167Z,45.80
2019-04-30T08:24:29.157Z,46.50
2019-04-30T08:27:02.247Z,45.80
2019-04-30T08:29:31.385Z,45.80
2019-04-30T08:32:00.620Z,45.80
2019-04-30T08:34:29.784Z,45.70
2019-04-30T08:37:16.751Z,45.60
2019-04-30T08:39:37.010Z,45.50
2019-04-30T08:42:31.697Z,45.50
2019-04-30T08:44:55.123Z,45.60
2019-04-30T08:47:24.202Z,45.50
2019-04-30T08:49:53.500Z,45.50
2019-04-30T08:52:25.520Z,45.50
2019-04-30T08:54:54.964Z,45.40
2019-04-30T08:57:24.145Z,45.30
2019-04-30T09:06:54.283Z,45.20
2019-04-30T09:09:24.417Z,45.30
2019-04-30T09:11:55.749Z,45.20
2019-04-30T09:14:32.730Z,45.20
2019-04-30T09:17:04.768Z,45.10
2019-04-30T09:19:38.625Z,45.00
2019-04-30T09:22:12.379Z,45.00
2019-04-30T09:25:11.626Z,45.00
2019-04-30T09:27:46.224Z,44.90
2019-04-30T09:30:15.025Z,44.90
2019-04-30T09:32:44.089Z,44.90
2019-04-30T09:38:02.000Z,44.80
2019-04-30T09:40:32.544Z,44.80
2019-04-30T09:45:52.547Z,44.70
2019-04-30T09:48:21.811Z,44.60
2019-04-30T09:50:51.350Z,44.50
2019-04-30T09:53:22.395Z,44.50
2019-04-30T09:55:51.376Z,44.60
2019-04-30T09:58:21.170Z,44.50
2019-04-30T10:00:50.505Z,44.50
2019-04-30T10:03:44.207Z,44.60
2019-04-30T10:06:36.340Z,44.50
2019-04-30T10:08:55.716Z,44.50
2019-04-30T10:11:43.629Z,44.40
2019-04-30T10:14:12.864Z,44.40
2019-04-30T10:17:15.320Z,44.40
2019-04-30T10:19:45.160Z,44.40
2019-04-30T10:22:50.940Z,44.40
2019-04-30T10:25:20.178Z,44.50
2019-04-30T10:27:50.680Z,44.40
2019-04-30T10:30:23.424Z,44.40
2019-04-30T10:32:56.865Z,44.30
2019-04-30T10:35:25.730Z,44.30
2019-04-30T10:37:59.552Z,44.30
2019-04-30T10:40:33.318Z,44.30
2019-04-30T10:43:02.358Z,44.30
2019-04-30T10:45:34.453Z,44.30
2019-04-30T10:48:03.475Z,44.30
2019-04-30T10:50:35.040Z,44.30
2019-04-30T10:53:09.138Z,44.20
2019-04-30T10:55:38.742Z,44.20
2019-04-30T10:58:10.839Z,44.30
2019-04-30T11:00:41.871Z,44.20
2019-04-30T11:03:19.189Z,44.20
2019-04-30T11:05:41.963Z,44.20
2019-04-30T11:08:11.348Z,44.10
2019-04-30T11:10:41.999Z,44.20
2019-04-30T11:13:10.826Z,44.20
2019-04-30T11:15:39.883Z,44.20
2019-04-30T11:18:09.589Z,44.20
2019-04-30T11:20:41.826Z,44.20
2019-04-30T11:23:14.761Z,44.20
2019-04-30T11:25:44.893Z,44.20
2019-04-30T11:28:18.431Z,44.10
2019-04-30T11:30:54.709Z,44.10
2019-04-30T11:33:55.450Z,44.10
2019-04-30T11:36:46.340Z,44.20
2019-04-30T11:39:29.858Z,44.10
2019-04-30T11:42:29.069Z,44.20
2019-04-30T11:45:19.457Z,44.20
2019-04-30T11:47:53.599Z,44.10
2019-04-30T11:50:20.730Z,44.10
2019-04-30T11:53:19.671Z,44.10
2019-04-30T11:55:35.980Z,44.10
2019-04-30T11:58:21.397Z,44.00
2019-04-30T12:00:43.996Z,43.90
2019-04-30T12:03:20.907Z,44.00
2019-04-30T12:05:53.797Z,43.90
2019-04-30T12:08:29.353Z,43.90
2019-04-30T12:11:24.476Z,43.90
2019-04-30T12:13:53.958Z,43.90
2019-04-30T12:16:26.033Z,43.90
2019-04-30T12:18:55.236Z,43.90
2019-04-30T12:21:35.586Z,43.90
2019-04-30T12:24:05.295Z,43.80
2019-04-30T12:26:36.391Z,43.80
2019-04-30T12:29:11.171Z,43.80
2019-04-30T12:31:44.553Z,43.80
2019-04-30T12:34:13.731Z,43.80
2019-04-30T12:36:43.880Z,43.90
2019-04-30T12:39:21.485Z,43.90
2019-04-30T12:41:50.579Z,43.90
2019-04-30T12:44:23.475Z,43.90
2019-04-30T12:46:52.506Z,43.90
2019-04-30T12:49:28.718Z,43.90
2019-04-30T12:52:23.057Z,43.90
2019-04-30T12:55:01.419Z,44.00
2019-04-30T12:57:36.736Z,43.90
2019-04-30T13:00:10.535Z,43.90
2019-04-30T13:02:42.276Z,43.90
2019-04-30T13:11:01.974Z,43.80
2019-04-30T13:13:32.671Z,43.80
2019-04-30T13:16:02.297Z,43.80
2019-04-30T13:18:31.301Z,43.80
2019-04-30T13:21:01.203Z,43.80
2019-04-30T13:23:45.612Z,43.80
2019-04-30T13:27:19.570Z,43.80
2019-04-30T13:29:01.968Z,43.70
2019-04-30T13:31:31.065Z,43.80
2019-04-30T13:34:18.639Z,43.80
2019-04-30T13:36:49.429Z,43.80
2019-04-30T13:39:26.913Z,43.80
2019-04-30T13:44:49.401Z,43.80
2019-04-30T13:47:26.467Z,43.70
2019-04-30T13:52:50.530Z,43.80
2019-04-30T13:55:24.135Z,43.70
2019-04-30T13:57:53.737Z,43.70
2019-04-30T14:00:29.756Z,43.70
2019-04-30T14:03:09.225Z,43.70
2019-04-30T14:05:46.776Z,43.80
2019-04-30T14:08:30.602Z,43.80
2019-04-30T14:11:01.430Z,43.80
2019-04-30T14:13:33.291Z,43.80
2019-04-30T14:16:08.950Z,43.80
2019-04-30T14:18:39.795Z,43.80
2019-04-30T14:21:16.826Z,43.80
2019-04-30T14:23:49.487Z,43.80
2019-04-30T14:26:21.843Z,43.70
2019-04-30T14:28:51.050Z,43.80
2019-04-30T14:31:20.877Z,43.70
2019-04-30T14:33:50.543Z,44.00
2019-04-30T14:36:20.153Z,43.60
2019-04-30T14:38:49.177Z,43.60
2019-04-30T14:41:20.449Z,43.70
2019-04-30T14:43:55.184Z,44.30
2019-04-30T14:46:44.399Z,43.70
2019-04-30T14:49:59.152Z,43.50
2019-04-30T14:52:19.341Z,43.60
2019-04-30T14:55:01.798Z,43.70
2019-04-30T14:58:02.383Z,43.60
2019-04-30T15:01:10.001Z,43.60
2019-04-30T15:03:40.848Z,43.50
2019-04-30T15:06:10.352Z,43.50
2019-04-30T15:08:40.100Z,43.50
2019-04-30T15:11:09.204Z,43.60
2019-04-30T15:13:39.408Z,43.60
2019-04-30T15:16:08.761Z,43.70
2019-04-30T15:18:38.878Z,43.60
2019-04-30T15:21:09.917Z,43.60
2019-04-30T15:24:13.180Z,43.50
2019-04-30T15:26:42.438Z,43.50
2019-04-30T15:29:24.584Z,43.50
2019-04-30T15:31:59.412Z,43.50
2019-04-30T15:34:29.293Z,43.60
2019-04-30T15:36:59.124Z,43.70
2019-04-30T15:39:48.863Z,43.70
2019-04-30T15:42:23.542Z,43.70
2019-04-30T15:44:53.011Z,43.70
2019-04-30T15:47:23.111Z,43.50
2019-04-30T15:49:54.950Z,43.50
2019-04-30T15:55:48.406Z,43.50
2019-04-30T15:58:24.517Z,43.50
2019-04-30T16:00:56.422Z,43.50
2019-04-30T16:03:29.376Z,43.50
2019-04-30T16:05:58.628Z,43.50
2019-04-30T16:08:33.132Z,43.50
2019-04-30T16:11:21.467Z,43.50
2019-04-30T16:14:18.738Z,43.40
2019-04-30T16:17:05.718Z,43.50
2019-04-30T16:19:35.797Z,43.50
2019-04-30T16:22:07.602Z,43.50
2019-04-30T16:24:39.303Z,43.50
2019-04-30T16:27:11.361Z,43.50
2019-04-30T16:32:30.842Z,43.60
2019-04-30T16:35:04.607Z,43.70
2019-04-30T16:40:19.030Z,43.70
2019-04-30T16:42:51.642Z,43.70
2019-04-30T16:45:21.464Z,43.80
2019-04-30T16:47:52.017Z,43.70
2019-04-30T16:50:25.032Z,43.80
2019-04-30T16:52:58.174Z,44.00
2019-04-30T16:55:28.603Z,44.10
2019-04-30T16:57:59.809Z,44.20
2019-04-30T17:09:14.542Z,44.10
2019-04-30T17:12:19.597Z,44.00
2019-04-30T17:15:15.640Z,44.20
2019-04-30T17:17:45.220Z,44.70
2019-04-30T17:20:14.952Z,44.20
2019-04-30T17:22:45.229Z,45.10
2019-04-30T17:25:17.324Z,45.00
2019-04-30T17:27:48.472Z,45.50
2019-04-30T17:30:20.862Z,46.70
2019-04-30T17:32:51.310Z,47.40
2019-04-30T17:35:25.280Z,47.40
2019-04-30T17:37:56.106Z,47.40
2019-04-30T17:40:29.084Z,47.70
2019-04-30T17:42:59.686Z,47.70
2019-04-30T17:45:30.226Z,47.60
2019-04-30T17:48:03.782Z,47.40
2019-04-30T17:50:33.187Z,47.20
2019-04-30T17:53:19.060Z,47.00
2019-04-30T17:55:57.903Z,46.80
2019-04-30T17:58:34.242Z,46.80
2019-04-30T18:01:06.374Z,46.70
2019-04-30T18:03:38.818Z,46.60
2019-04-30T18:06:09.016Z,46.50
2019-04-30T18:08:39.372Z,46.30
2019-04-30T18:11:19.902Z,46.20
2019-04-30T18:13:45.321Z,46.20
2019-04-30T18:16:19.484Z,46.20
2019-04-30T18:18:59.226Z,46.20
2019-04-30T18:21:43.069Z,46.00
2019-04-30T18:24:35.074Z,45.80
2019-04-30T18:27:29.331Z,45.60
2019-04-30T18:30:03.375Z,45.20
2019-04-30T18:32:42.725Z,44.90
2019-04-30T18:35:28.622Z,44.60
2019-04-30T18:38:14.266Z,44.20
2019-04-30T18:40:53.291Z,44.00
2019-04-30T18:43:28.611Z,43.80
2019-04-30T18:46:11.088Z,43.80
2019-04-30T18:48:46.678Z,43.90
2019-04-30T18:53:53.039Z,43.90
2019-04-30T18:56:41.872Z,43.80
2019-04-30T18:59:13.879Z,43.90
2019-04-30T19:01:44.819Z,43.80
2019-04-30T19:04:22.416Z,43.50
2019-04-30T19:06:57.328Z,43.40
2019-04-30T19:09:53.448Z,43.10
2019-04-30T19:12:51.242Z,42.90
2019-04-30T19:16:11.368Z,43.20
2019-04-30T19:18:25.864Z,42.40
2019-04-30T19:21:05.890Z,42.20
2019-04-30T19:23:40.571Z,42.20
2019-04-30T19:26:14.324Z,42.20
2019-04-30T19:28:50.620Z,42.20
2019-04-30T19:31:33.995Z,42.20
2019-04-30T19:34:10.718Z,42.30
2019-04-30T19:36:42.704Z,42.30
2019-04-30T19:39:21.421Z,42.40
2019-04-30T19:41:53.775Z,42.50
2019-04-30T19:44:23.368Z,42.70
2019-04-30T19:46:59.964Z,42.90
2019-04-30T19:49:38.926Z,43.10
2019-04-30T19:52:15.695Z,43.20
2019-04-30T19:54:48.786Z,43.10
2019-04-30T19:57:26.234Z,43.30
2019-04-30T19:59:58.651Z,43.40
2019-04-30T20:02:29.458Z,43.40
2019-04-30T20:05:03.475Z,43.40
2019-04-30T20:07:36.937Z,43.50
2019-04-30T20:10:10.675Z,43.40
2019-04-30T20:12:49.277Z,43.40
2019-04-30T20:15:24.413Z,43.40
2019-04-30T20:17:58.354Z,43.40
2019-04-30T20:20:31.381Z,43.30
2019-04-30T20:23:03.975Z,43.30
2019-04-30T20:25:37.995Z,43.40
2019-04-30T20:28:15.128Z,43.30
2019-04-30T20:30:49.942Z,43.50
2019-04-30T20:33:21.945Z,43.40
2019-04-30T20:35:54.144Z,43.50
2019-04-30T20:38:55.330Z,43.60
2019-04-30T20:41:30.287Z,43.70
2019-04-30T20:44:00.870Z,43.80
2019-04-30T20:46:35.210Z,44.10
2019-04-30T20:49:22.893Z,44.40
2019-04-30T20:51:59.053Z,44.80
2019-04-30T20:54:31.328Z,45.20
2019-04-30T20:57:15.598Z,45.50
2019-04-30T20:59:45.052Z,45.70
2019-04-30T21:02:21.294Z,45.90
2019-04-30T21:05:02.910Z,46.00
2019-04-30T21:07:36.323Z,46.20
2019-04-30T21:10:10.159Z,46.30
2019-04-30T21:12:39.822Z,46.40
2019-04-30T21:15:12.285Z,46.90
2019-04-30T21:18:12.539Z,46.20
2019-04-30T21:20:46.434Z,46.50
2019-04-30T21:23:19.611Z,46.70
2019-04-30T21:25:53.665Z,46.90
2019-04-30T21:28:22.988Z,46.90
2019-04-30T21:30:53.787Z,47.10
2019-04-30T21:33:41.351Z,47.20
2019-04-30T21:36:30.499Z,47.20
2019-04-30T21:59:06.455Z,48.40
2019-04-30T22:01:36.156Z,48.50
2019-04-30T22:04:07.833Z,48.40
2019-04-30T22:06:39.477Z,47.90
2019-04-30T22:09:22.922Z,47.60
2019-04-30T22:11:53.135Z,47.40
2019-04-30T22:14:22.965Z,47.00
2019-04-30T22:16:59.281Z,46.70
2019-04-30T22:19:30.949Z,46.40
2019-04-30T22:22:04.513Z,46.20
2019-04-30T22:24:34.989Z,46.00
2019-04-30T22:27:04.538Z,45.90
2019-04-30T22:29:39.283Z,45.70
2019-04-30T22:32:09.399Z,45.60
2019-04-30T22:34:38.669Z,45.30
2019-04-30T22:37:08.531Z,45.20
2019-04-30T22:40:02.290Z,45.20
2019-04-30T22:42:33.401Z,45.00
2019-04-30T22:45:02.813Z,45.00
2019-04-30T22:47:37.715Z,44.90
2019-04-30T22:50:09.369Z,44.80
2019-04-30T22:52:40.672Z,44.70
2019-04-30T22:57:48.852Z,44.50
2019-04-30T23:00:29.972Z,44.40
2019-04-30T23:03:08.799Z,44.30
2019-04-30T23:05:40.793Z,44.20
2019-04-30T23:08:10.297Z,44.30
2019-04-30T23:10:41.335Z,44.30
2019-04-30T23:13:14.578Z,44.20
2019-04-30T23:15:53.011Z,44.10
2019-04-30T23:18:23.546Z,44.00
2019-04-30T23:21:09.076Z,43.90
2019-04-30T23:23:42.512Z,44.00
2019-04-30T23:26:12.990Z,44.00
2019-04-30T23:28:47.409Z,43.90
2019-04-30T23:31:19.186Z,43.90
2019-04-30T23:33:53.182Z,43.90
2019-04-30T23:36:25.365Z,43.90
2019-04-30T23:38:57.564Z,43.90
2019-04-30T23:41:27.682Z,43.90
2019-04-30T23:44:15.312Z,43.80
2019-04-30T23:46:52.290Z,43.80
2019-04-30T23:49:49.542Z,43.90
2019-04-30T23:52:08.854Z,43.80
2019-04-30T23:54:42.926Z,43.70
2019-04-30T23:57:20.377Z,43.50
2019-04-30T23:59:50.560Z,43.50
